Time;durP1;ratioP1;P1;durP2;ratioP2;P2;SDS_P1;SDS_P2;PMS_P1;PMS_P2;Temp;Humidity;BMP_temperature;BMP_pressure;BME280_temperature;BME280_humidity;BME280_pressure;Samples;Min_cycle;Max_cycle;Signal;HPM_P1;HPM_P2
2021/04/25 00:00:48;;;;;;;11.82;4.90;;;9.30;50.80;;;;;;5037315;28;20416;-79
2021/04/25 00:03:13;;;;;;;15.70;5.15;;;9.30;50.90;;;;;;5030870;28;21877;-78
2021/04/25 00:05:39;;;;;;;11.15;4.20;;;9.30;51.20;;;;;;5021027;28;20365;-80
2021/04/25 00:08:05;;;;;;;10.95;4.72;;;9.20;51.30;;;;;;5029343;28;20053;-80
2021/04/25 00:10:30;;;;;;;11.60;3.83;;;9.20;52.50;;;;;;5023116;28;20037;-79
2021/04/25 00:12:56;;;;;;;14.75;4.85;;;9.20;52.90;;;;;;5021367;28;20068;-80
2021/04/25 00:15:23;;;;;;;17.20;4.53;;;9.10;52.80;;;;;;5026476;28;20041;-79
2021/04/25 00:17:50;;;;;;;12.90;4.28;;;9.10;52.90;;;;;;5031789;28;20041;-80
2021/04/25 00:20:16;;;;;;;7.85;3.90;;;9.00;53.00;;;;;;5023561;28;20076;-80
2021/04/25 00:22:43;;;;;;;10.20;3.70;;;9.00;53.40;;;;;;5032237;28;20041;-79
2021/04/25 00:25:10;;;;;;;8.40;3.50;;;9.00;53.50;;;;;;5025871;28;20041;-80
2021/04/25 00:27:36;;;;;;;10.63;4.70;;;8.90;54.10;;;;;;5030413;28;20057;-78
2021/04/25 00:30:03;;;;;;;7.95;4.15;;;9.00;53.90;;;;;;5031759;28;20046;-78
2021/04/25 00:32:28;;;;;;;10.00;4.28;;;9.00;54.60;;;;;;5036551;28;20709;-76
2021/04/25 00:34:54;;;;;;;11.63;4.75;;;8.90;54.80;;;;;;5038134;28;20049;-78
2021/04/25 00:37:20;;;;;;;12.93;4.72;;;8.90;55.80;;;;;;5032606;28;20041;-78
2021/04/25 00:39:46;;;;;;;11.30;3.90;;;8.90;55.00;;;;;;5030795;28;20083;-78
2021/04/25 00:42:14;;;;;;;14.15;4.30;;;8.90;55.30;;;;;;5025200;28;20106;-78
2021/04/25 00:44:41;;;;;;;20.70;5.07;;;8.90;55.20;;;;;;5026871;28;20069;-79
2021/04/25 00:47:07;;;;;;;12.20;4.65;;;8.80;54.80;;;;;;5024768;28;20034;-79
2021/04/25 00:49:32;;;;;;;8.63;3.58;;;8.80;54.80;;;;;;5028108;28;20047;-81
2021/04/25 00:51:58;;;;;;;12.88;4.05;;;8.80;55.80;;;;;;5020815;28;20045;-78
2021/04/25 00:54:24;;;;;;;9.07;4.30;;;8.80;55.80;;;;;;5025024;28;20149;-77
2021/04/25 00:56:50;;;;;;;10.25;4.50;;;8.70;55.40;;;;;;5025416;28;20064;-78
2021/04/25 00:59:16;;;;;;;9.15;4.28;;;8.70;56.20;;;;;;5022945;28;20069;-78
2021/04/25 01:01:42;;;;;;;16.63;4.68;;;8.70;55.80;;;;;;5044950;28;20018;-78
2021/04/25 01:04:07;;;;;;;10.38;4.00;;;8.70;55.80;;;;;;5041916;28;20025;-79
2021/04/25 01:06:33;;;;;;;10.15;4.05;;;8.80;55.80;;;;;;5044388;28;20606;-80
2021/04/25 01:08:58;;;;;;;16.58;4.25;;;8.70;56.20;;;;;;5029006;28;20612;-78
2021/04/25 01:11:24;;;;;;;19.08;4.72;;;8.70;56.60;;;;;;5021342;28;20044;-78
2021/04/25 01:13:51;;;;;;;15.65;4.25;;;8.60;56.50;;;;;;5025583;28;20059;-77
2021/04/25 01:16:17;;;;;;;9.00;4.32;;;8.60;56.90;;;;;;5033166;28;20056;-78
2021/04/25 01:18:43;;;;;;;14.93;4.07;;;8.60;57.20;;;;;;5035866;28;20037;-79
2021/04/25 01:21:08;;;;;;;7.80;4.28;;;8.50;57.20;;;;;;5027632;28;20104;-80
2021/04/25 01:23:34;;;;;;;11.93;4.30;;;8.50;58.30;;;;;;5017809;28;20072;-80
2021/04/25 01:25:59;;;;;;;13.57;4.85;;;8.50;58.70;;;;;;5022581;28;20054;-78
2021/04/25 01:28:25;;;;;;;13.07;4.18;;;8.40;59.20;;;;;;5033056;28;20037;-80
2021/04/25 01:30:53;;;;;;;9.88;3.88;;;8.40;58.90;;;;;;5030415;28;20044;-78
2021/04/25 01:33:19;;;;;;;12.30;4.18;;;8.40;59.70;;;;;;5028158;28;20484;-79
2021/04/25 01:35:45;;;;;;;12.57;4.32;;;8.30;59.90;;;;;;5019911;28;20083;-79
2021/04/25 01:38:10;;;;;;;10.18;3.95;;;8.40;59.80;;;;;;5019833;28;20546;-80
2021/04/25 01:40:36;;;;;;;12.32;4.45;;;8.30;60.10;;;;;;5022172;28;20099;-80
2021/04/25 01:43:02;;;;;;;11.25;4.70;;;8.20;60.50;;;;;;5025241;28;20041;-79
2021/04/25 01:45:29;;;;;;;7.43;4.57;;;8.20;60.60;;;;;;5023733;28;20045;-78
2021/04/25 01:47:57;;;;;;;8.70;4.38;;;8.20;60.80;;;;;;5028645;28;20532;-78
2021/04/25 01:50:25;;;;;;;12.63;4.70;;;8.20;61.00;;;;;;5027681;28;20033;-78
2021/04/25 01:52:53;;;;;;;9.18;3.72;;;8.20;61.40;;;;;;5016621;28;20036;-79
2021/04/25 01:55:20;;;;;;;13.50;4.25;;;8.10;61.50;;;;;;5016178;28;20777;-79
2021/04/25 01:57:46;;;;;;;14.65;4.47;;;8.10;61.40;;;;;;5024800;28;20520;-78
2021/04/25 02:00:18;;;;;;;13.93;5.40;;;8.10;61.80;;;;;;5017843;28;20124;-79
2021/04/25 02:02:44;;;;;;;14.40;4.65;;;8.10;62.10;;;;;;5003204;28;20099;-78
2021/04/25 02:05:12;;;;;;;8.25;4.45;;;8.00;62.90;;;;;;5023765;28;20036;-80
2021/04/25 02:07:38;;;;;;;10.10;4.57;;;8.00;62.60;;;;;;5020919;28;20333;-79
2021/04/25 02:10:07;;;;;;;13.95;4.57;;;8.00;63.10;;;;;;5018301;28;20041;-79
2021/04/25 02:12:34;;;;;;;15.27;4.90;;;7.90;63.50;;;;;;5023544;28;20037;-80
2021/04/25 02:14:59;;;;;;;9.50;4.03;;;7.80;63.90;;;;;;5022845;28;20821;-80
2021/04/25 02:17:25;;;;;;;11.95;5.38;;;7.90;64.10;;;;;;5020258;28;20051;-79
2021/04/25 02:19:50;;;;;;;9.07;4.70;;;7.80;64.30;;;;;;5028657;28;20041;-79
2021/04/25 02:22:16;;;;;;;13.13;5.03;;;7.80;64.70;;;;;;5032349;28;20033;-78
2021/04/25 02:24:42;;;;;;;16.05;4.35;;;7.80;64.70;;;;;;5031083;28;20052;-78
2021/04/25 02:27:07;;;;;;;14.45;4.80;;;7.70;64.50;;;;;;5031858;28;20032;-77
2021/04/25 02:29:33;;;;;;;17.83;5.43;;;7.70;65.60;;;;;;5032629;28;20060;-77
2021/04/25 02:31:59;;;;;;;14.20;4.57;;;7.60;65.10;;;;;;5029789;28;20053;-77
2021/04/25 02:34:24;;;;;;;13.65;4.95;;;7.70;65.80;;;;;;5035631;28;20048;-77
2021/04/25 02:36:50;;;;;;;12.05;5.00;;;7.60;65.70;;;;;;5047002;28;20048;-77
2021/04/25 02:39:15;;;;;;;17.85;5.50;;;7.60;66.00;;;;;;5044877;28;20161;-78
2021/04/25 02:41:41;;;;;;;12.90;4.85;;;7.50;66.40;;;;;;5027343;28;20033;-79
2021/04/25 02:44:07;;;;;;;13.02;4.40;;;7.50;66.50;;;;;;5032931;28;20029;-77
2021/04/25 02:46:32;;;;;;;10.18;4.25;;;7.50;67.10;;;;;;5027363;28;20602;-78
2021/04/25 02:48:58;;;;;;;11.40;4.78;;;7.50;67.10;;;;;;5027728;28;20041;-77
2021/04/25 02:51:25;;;;;;;8.73;4.72;;;7.50;67.00;;;;;;5027008;28;20029;-80
2021/04/25 02:53:51;;;;;;;12.02;5.28;;;7.40;67.10;;;;;;5024820;28;20041;-77
2021/04/25 02:56:16;;;;;;;10.77;4.53;;;7.40;67.50;;;;;;5025414;28;20037;-78
2021/04/25 02:58:42;;;;;;;17.08;5.03;;;7.30;67.10;;;;;;5023315;28;20042;-78
2021/04/25 03:01:08;;;;;;;13.65;4.90;;;7.30;67.30;;;;;;5032714;28;20137;-77
2021/04/25 03:03:33;;;;;;;11.38;5.40;;;7.30;67.70;;;;;;5024464;28;20037;-77
2021/04/25 03:05:59;;;;;;;11.57;4.70;;;7.30;67.90;;;;;;5024618;28;20038;-78
2021/04/25 03:08:25;;;;;;;16.73;5.32;;;7.20;68.80;;;;;;5023394;28;20037;-78
2021/04/25 03:10:51;;;;;;;11.95;5.53;;;7.20;69.10;;;;;;5017633;28;20133;-78
2021/04/25 03:13:16;;;;;;;15.07;5.40;;;7.20;68.90;;;;;;5018286;28;20115;-77
2021/04/25 03:15:42;;;;;;;13.65;5.10;;;7.10;69.10;;;;;;5022639;28;20033;-79
2021/04/25 03:18:08;;;;;;;14.13;4.55;;;7.10;70.90;;;;;;5023889;28;20033;-77
2021/04/25 03:20:34;;;;;;;14.63;5.13;;;7.10;71.00;;;;;;5021114;28;20049;-78
2021/04/25 03:23:00;;;;;;;11.30;4.80;;;7.00;71.00;;;;;;5034280;28;20042;-77
2021/04/25 03:25:25;;;;;;;11.75;4.75;;;7.00;71.80;;;;;;5041897;28;20055;-79
2021/04/25 03:27:51;;;;;;;11.80;5.60;;;7.00;72.10;;;;;;5035468;28;20109;-77
2021/04/25 03:30:18;;;;;;;14.05;4.65;;;7.00;72.80;;;;;;5051974;28;20367;-77
2021/04/25 03:32:45;;;;;;;16.88;4.85;;;7.00;72.90;;;;;;5038067;28;20076;-78
2021/04/25 03:35:13;;;;;;;12.65;4.63;;;7.00;72.60;;;;;;5019901;28;20100;-80
2021/04/25 03:37:39;;;;;;;23.80;5.32;;;7.00;72.80;;;;;;5031597;28;20061;-79
2021/04/25 03:40:07;;;;;;;15.68;5.03;;;6.90;73.00;;;;;;5030820;28;20054;-77
2021/04/25 03:42:33;;;;;;;10.20;4.80;;;7.00;73.20;;;;;;5034275;28;20637;-78
2021/04/25 03:44:58;;;;;;;13.48;6.03;;;7.00;73.90;;;;;;5029727;28;20059;-80
2021/04/25 03:47:24;;;;;;;13.50;4.50;;;7.00;73.20;;;;;;5031152;28;20762;-81
2021/04/25 03:49:49;;;;;;;9.88;5.15;;;7.00;72.90;;;;;;5027866;28;20524;-78
2021/04/25 03:52:15;;;;;;;18.98;5.03;;;6.90;74.00;;;;;;5031666;28;20049;-79
2021/04/25 03:54:41;;;;;;;13.45;4.43;;;6.90;73.50;;;;;;5027310;28;20041;-78
2021/04/25 03:57:06;;;;;;;14.40;5.03;;;6.90;73.80;;;;;;5032898;28;20064;-79
2021/04/25 03:59:33;;;;;;;16.60;5.30;;;6.90;74.20;;;;;;5028335;28;20068;-77
2021/04/25 04:01:59;;;;;;;21.20;5.30;;;6.90;73.80;;;;;;5033728;28;20041;-79
2021/04/25 04:04:24;;;;;;;14.90;5.40;;;6.90;73.90;;;;;;5031485;28;20047;-79
2021/04/25 04:06:50;;;;;;;11.05;5.85;;;6.80;73.90;;;;;;5042465;28;20110;-76
2021/04/25 04:09:17;;;;;;;10.32;4.78;;;6.80;74.00;;;;;;5044151;28;20029;-79
2021/04/25 04:11:46;;;;;;;15.15;5.55;;;6.80;74.70;;;;;;5025654;28;20768;-79
2021/04/25 04:14:12;;;;;;;20.95;5.03;;;6.70;74.40;;;;;;5024882;28;20034;-78
2021/04/25 04:16:37;;;;;;;12.05;5.53;;;6.70;74.50;;;;;;5029543;28;20064;-80
2021/04/25 04:19:03;;;;;;;12.20;5.63;;;6.70;74.60;;;;;;5030194;28;20133;-78
2021/04/25 04:21:28;;;;;;;10.60;4.97;;;6.70;75.20;;;;;;5026077;28;20103;-81
2021/04/25 04:23:54;;;;;;;12.90;6.03;;;6.60;75.90;;;;;;5022912;28;20049;-81
2021/04/25 04:26:21;;;;;;;12.77;5.10;;;6.60;75.90;;;;;;5026893;28;20038;-78
2021/04/25 04:28:46;;;;;;;15.18;5.93;;;6.50;76.50;;;;;;5033063;28;20033;-78
2021/04/25 04:31:12;;;;;;;10.40;5.32;;;6.50;76.90;;;;;;5022963;28;20080;-80
2021/04/25 04:33:38;;;;;;;13.18;5.55;;;6.50;77.70;;;;;;5045299;28;20034;-81
2021/04/25 04:36:05;;;;;;;13.18;5.85;;;6.50;77.60;;;;;;5033099;28;20041;-80
2021/04/25 04:38:30;;;;;;;11.80;5.90;;;6.40;77.40;;;;;;5035290;28;20033;-80
2021/04/25 04:40:56;;;;;;;15.20;5.20;;;6.40;77.70;;;;;;5046606;28;20080;-79
2021/04/25 04:43:23;;;;;;;13.30;6.50;;;6.40;77.80;;;;;;5031706;28;20098;-80
2021/04/25 04:45:49;;;;;;;21.15;5.72;;;6.40;78.50;;;;;;5031810;28;20030;-77
2021/04/25 04:48:14;;;;;;;10.85;5.65;;;6.50;78.60;;;;;;5029194;28;20034;-81
2021/04/25 04:50:40;;;;;;;12.68;5.47;;;6.50;78.80;;;;;;5031955;28;20036;-78
2021/04/25 04:53:06;;;;;;;13.48;5.65;;;6.50;78.90;;;;;;5032002;28;20038;-79
2021/04/25 04:55:31;;;;;;;15.13;5.63;;;6.50;79.00;;;;;;5029005;28;20042;-79
2021/04/25 04:57:57;;;;;;;14.68;5.57;;;6.50;79.00;;;;;;5028431;28;20033;-78
2021/04/25 05:00:22;;;;;;;14.63;5.93;;;6.50;78.70;;;;;;5028964;28;20511;-79
2021/04/25 05:02:48;;;;;;;14.00;5.32;;;6.50;79.20;;;;;;5027522;28;20446;-79
2021/04/25 05:05:13;;;;;;;14.38;5.47;;;6.50;78.60;;;;;;5043633;28;20388;-77
2021/04/25 05:07:39;;;;;;;13.50;5.80;;;6.60;78.70;;;;;;5027557;28;20468;-77
2021/04/25 05:10:06;;;;;;;15.35;5.93;;;6.60;78.60;;;;;;5028085;28;20563;-79
2021/04/25 05:12:32;;;;;;;16.75;6.15;;;6.60;79.20;;;;;;5044641;28;20065;-78
2021/04/25 05:14:57;;;;;;;20.05;6.57;;;6.70;79.20;;;;;;5037745;28;20439;-77
2021/04/25 05:17:23;;;;;;;15.32;6.10;;;6.60;78.70;;;;;;5033419;28;20093;-78
2021/04/25 05:19:49;;;;;;;10.70;5.72;;;6.70;78.90;;;;;;5033893;28;20049;-78
2021/04/25 05:22:14;;;;;;;15.32;5.90;;;6.70;78.50;;;;;;5028679;28;20035;-78
2021/04/25 05:24:40;;;;;;;12.82;6.13;;;6.70;78.60;;;;;;5032045;28;20068;-77
2021/04/25 05:27:05;;;;;;;13.82;6.30;;;6.80;78.50;;;;;;5034974;28;20041;-78
2021/04/25 05:29:31;;;;;;;15.15;6.10;;;6.90;78.00;;;;;;5034343;28;20069;-79
2021/04/25 05:31:57;;;;;;;17.10;6.53;;;7.00;78.80;;;;;;5029309;28;20034;-77
2021/04/25 05:34:22;;;;;;;25.42;6.72;;;7.10;78.20;;;;;;5028384;28;20029;-79
2021/04/25 05:36:48;;;;;;;21.70;6.68;;;7.20;77.50;;;;;;5031367;28;20093;-79
2021/04/25 05:39:13;;;;;;;13.35;6.28;;;7.20;77.40;;;;;;5031666;28;20038;-77
2021/04/25 05:41:39;;;;;;;13.75;5.97;;;7.30;77.10;;;;;;5031202;28;20045;-77
2021/04/25 05:44:05;;;;;;;20.95;6.53;;;7.40;76.50;;;;;;5032085;28;20041;-77
2021/04/25 05:46:33;;;;;;;18.25;6.20;;;7.50;76.30;;;;;;5033147;28;20064;-78
2021/04/25 05:48:59;;;;;;;14.18;6.75;;;7.60;76.20;;;;;;5028199;28;20036;-78
2021/04/25 05:51:24;;;;;;;22.33;6.68;;;7.70;75.30;;;;;;5032274;28;20033;-77
2021/04/25 05:53:52;;;;;;;13.57;5.93;;;7.80;74.50;;;;;;5030404;28;20479;-78
2021/04/25 05:56:18;;;;;;;12.50;6.25;;;8.00;73.90;;;;;;5028758;28;20030;-78
2021/04/25 05:58:44;;;;;;;12.85;6.40;;;8.00;73.50;;;;;;5025354;28;20045;-79
2021/04/25 06:01:09;;;;;;;13.20;6.20;;;8.20;73.00;;;;;;5032510;28;20045;-78
2021/04/25 06:03:35;;;;;;;13.27;6.03;;;8.30;73.00;;;;;;5027164;28;20030;-79
2021/04/25 06:06:00;;;;;;;12.40;6.20;;;8.30;71.70;;;;;;5026837;28;20060;-79
2021/04/25 06:08:26;;;;;;;15.73;6.78;;;8.40;71.10;;;;;;5030925;28;20060;-78
2021/04/25 06:10:52;;;;;;;17.70;7.05;;;8.50;71.00;;;;;;5035158;28;20038;-78
2021/04/25 06:13:18;;;;;;;25.63;7.65;;;8.50;70.50;;;;;;5033567;28;20056;-81
2021/04/25 06:15:44;;;;;;;14.88;6.28;;;8.50;70.20;;;;;;5020918;28;20037;-79
2021/04/25 06:18:09;;;;;;;18.30;6.55;;;8.60;69.30;;;;;;5027041;28;20041;-78
2021/04/25 06:20:35;;;;;;;13.38;6.32;;;8.50;69.90;;;;;;5021061;28;20101;-80
2021/04/25 06:23:00;;;;;;;15.90;6.75;;;8.50;69.20;;;;;;5037498;28;20485;-82
2021/04/25 06:25:26;;;;;;;16.55;6.55;;;8.60;69.80;;;;;;5018579;28;20034;-80
2021/04/25 06:27:52;;;;;;;17.00;6.97;;;8.70;69.30;;;;;;5022181;28;20045;-79
2021/04/25 06:30:18;;;;;;;13.68;7.15;;;8.80;68.50;;;;;;5029634;28;20552;-79
2021/04/25 06:32:45;;;;;;;17.92;6.88;;;9.00;68.20;;;;;;5035509;28;20048;-78
2021/04/25 06:35:13;;;;;;;16.90;6.68;;;8.90;67.70;;;;;;5027817;28;20038;-78
2021/04/25 06:37:40;;;;;;;17.17;6.60;;;9.00;67.70;;;;;;5031326;28;20464;-80
2021/04/25 06:40:07;;;;;;;18.23;7.20;;;9.00;67.10;;;;;;5033592;28;20041;-79
2021/04/25 06:42:32;;;;;;;20.38;7.97;;;9.10;67.30;;;;;;5030286;28;20440;-78
2021/04/25 06:44:58;;;;;;;22.67;7.53;;;9.20;67.10;;;;;;5032005;28;20107;-78
2021/04/25 06:47:23;;;;;;;22.85;9.05;;;9.50;67.30;;;;;;5028291;28;20162;-81
2021/04/25 06:49:49;;;;;;;14.98;7.55;;;9.80;65.30;;;;;;5031182;28;20045;-78
2021/04/25 06:52:15;;;;;;;21.88;7.45;;;10.40;61.80;;;;;;5039015;28;20044;-78
2021/04/25 06:54:41;;;;;;;20.55;8.35;;;11.10;58.30;;;;;;5020965;28;20049;-77
2021/04/25 06:57:07;;;;;;;16.48;7.20;;;11.30;55.40;;;;;;5025916;28;20820;-79
2021/04/25 06:59:34;;;;;;;20.77;9.05;;;11.10;53.70;;;;;;5025862;28;20526;-79
2021/04/25 07:02:00;;;;;;;21.98;8.45;;;11.50;53.50;;;;;;5027336;28;20040;-78
2021/04/25 07:04:25;;;;;;;16.98;8.02;;;11.80;53.10;;;;;;5026955;28;20045;-78
2021/04/25 07:06:51;;;;;;;16.55;7.85;;;12.10;50.80;;;;;;5029709;28;20033;-77
2021/04/25 07:09:17;;;;;;;19.60;7.97;;;12.00;50.30;;;;;;5033732;28;20124;-79
2021/04/25 07:11:42;;;;;;;19.50;8.07;;;12.20;50.70;;;;;;5040566;28;20033;-80
2021/04/25 07:14:08;;;;;;;25.27;8.18;;;12.10;48.70;;;;;;5033603;28;20038;-76
2021/04/25 07:16:34;;;;;;;21.20;8.93;;;11.40;48.40;;;;;;5020020;28;20033;-77
2021/04/25 07:18:59;;;;;;;22.40;8.38;;;11.30;50.90;;;;;;5019095;28;20251;-77
2021/04/25 07:21:25;;;;;;;16.40;8.75;;;11.20;50.60;;;;;;5028886;28;20285;-79
2021/04/25 07:23:50;;;;;;;28.63;9.95;;;11.50;49.60;;;;;;5025549;28;20030;-77
2021/04/25 07:26:16;;;;;;;25.52;8.63;;;11.60;49.90;;;;;;5022615;28;20042;-77
2021/04/25 07:28:42;;;;;;;17.63;8.95;;;11.90;48.90;;;;;;5024559;28;20026;-77
2021/04/25 07:31:08;;;;;;;23.35;9.35;;;12.50;47.80;;;;;;5018035;28;20492;-77
2021/04/25 07:33:34;;;;;;;15.73;8.20;;;12.80;45.10;;;;;;5021948;28;20034;-81
2021/04/25 07:36:09;;;;;;;19.63;9.63;;;12.20;43.20;;;;;;5032893;28;20041;-77
2021/04/25 07:38:37;;;;;;;24.67;9.90;;;12.60;44.70;;;;;;5019785;28;20036;-79
2021/04/25 07:41:03;;;;;;;19.58;9.70;;;13.00;43.00;;;;;;5022220;28;20053;-79
2021/04/25 07:43:28;;;;;;;27.48;10.30;;;12.80;41.10;;;;;;5024254;28;20037;-79
2021/04/25 07:46:04;;;;;;;19.80;10.00;;;12.50;42.00;;;;;;5022925;28;20315;-78
2021/04/25 07:48:30;;;;;;;19.23;9.80;;;12.80;42.10;;;;;;5031901;28;20045;-82
2021/04/25 07:50:56;;;;;;;22.02;10.00;;;12.80;41.80;;;;;;5037235;28;20191;-82
2021/04/25 07:53:21;;;;;;;20.65;10.55;;;13.20;42.10;;;;;;5029131;28;20049;-79
2021/04/25 07:55:47;;;;;;;27.00;10.70;;;13.40;39.90;;;;;;5033530;28;20040;-79
2021/04/25 07:58:13;;;;;;;24.30;10.02;;;13.40;38.20;;;;;;5032840;28;20037;-79
2021/04/25 08:00:38;;;;;;;21.85;9.95;;;13.70;38.70;;;;;;5027460;28;20112;-80
2021/04/25 08:03:06;;;;;;;22.75;9.98;;;13.50;37.90;;;;;;5029404;28;20033;-78
2021/04/25 08:05:32;;;;;;;25.52;11.20;;;13.10;37.90;;;;;;5044224;28;20105;-78
2021/04/25 08:07:58;;;;;;;22.83;11.00;;;12.90;38.80;;;;;;5031863;28;20053;-88
2021/04/25 08:10:24;;;;;;;20.95;9.85;;;13.00;39.80;;;;;;5045153;28;20045;-79
2021/04/25 08:12:50;;;;;;;18.42;9.77;;;13.00;39.50;;;;;;5023950;28;20044;-76
2021/04/25 08:15:16;;;;;;;26.35;10.07;;;13.20;40.10;;;;;;5027241;28;20201;-78
2021/04/25 08:17:41;;;;;;;28.63;11.00;;;13.30;39.10;;;;;;5032274;28;20084;-82
2021/04/25 08:20:08;;;;;;;24.38;9.98;;;13.30;39.90;;;;;;5030957;28;20045;-81
2021/04/25 08:22:33;;;;;;;24.42;10.48;;;13.40;39.30;;;;;;5026996;28;20184;-80
2021/04/25 08:25:00;;;;;;;26.80;11.82;;;13.70;38.70;;;;;;5025343;28;20037;-77
2021/04/25 08:27:26;;;;;;;26.10;11.75;;;14.00;38.00;;;;;;5017598;28;20060;-78
2021/04/25 08:29:51;;;;;;;29.73;10.27;;;13.80;38.00;;;;;;5026096;28;20164;-77
2021/04/25 08:32:17;;;;;;;24.63;11.45;;;13.40;35.70;;;;;;5024993;28;20051;-77
2021/04/25 08:34:43;;;;;;;20.77;10.77;;;13.80;37.10;;;;;;5022569;28;20149;-79
2021/04/25 08:37:08;;;;;;;34.67;10.30;;;14.00;37.60;;;;;;5025506;28;20506;-79
2021/04/25 08:39:34;;;;;;;30.40;11.32;;;13.80;37.20;;;;;;5027703;28;21004;-78
2021/04/25 08:42:00;;;;;;;30.23;10.60;;;14.40;36.00;;;;;;5028123;28;20076;-78
2021/04/25 08:44:25;;;;;;;21.15;9.65;;;14.90;34.60;;;;;;5029460;28;20059;-79
2021/04/25 08:46:53;;;;;;;23.35;11.65;;;14.90;34.30;;;;;;5033788;28;20034;-80
2021/04/25 08:49:24;;;;;;;23.30;10.88;;;15.30;33.10;;;;;;5033298;28;20034;-78
2021/04/25 08:51:51;;;;;;;23.88;10.50;;;15.30;32.00;;;;;;5040242;28;20029;-78
2021/04/25 08:54:25;;;;;;;32.05;11.70;;;15.70;30.80;;;;;;5037965;28;20454;-79
2021/04/25 08:56:52;;;;;;;22.87;10.17;;;16.20;29.50;;;;;;5032782;28;20037;-78
2021/04/25 08:59:18;;;;;;;23.33;10.52;;;15.60;28.80;;;;;;5039711;28;20037;-78
2021/04/25 09:01:43;;;;;;;27.58;10.63;;;16.40;29.20;;;;;;5032830;28;20125;-79
2021/04/25 09:04:09;;;;;;;22.88;10.55;;;16.40;27.20;;;;;;5039798;28;20125;-78
2021/04/25 09:06:35;;;;;;;21.35;9.80;;;17.00;25.80;;;;;;5033615;28;20112;-78
2021/04/25 09:09:03;;;;;;;25.50;10.98;;;16.90;25.30;;;;;;5038515;28;20034;-78
2021/04/25 09:11:42;;;;;;;23.45;9.63;;;17.60;25.30;;;;;;5028614;28;20026;-83
2021/04/25 09:14:25;;;;;;;24.73;9.27;;;16.80;24.50;;;;;;5025342;28;20441;-78
2021/04/25 09:17:04;;;;;;;21.08;9.65;;;17.50;24.30;;;;;;5028830;28;20034;-79
2021/04/25 09:19:53;;;;;;;19.67;9.90;;;18.50;24.50;;;;;;5028089;28;20037;-78
2021/04/25 09:22:20;;;;;;;19.98;9.65;;;17.20;21.80;;;;;;5028955;28;20033;-79
2021/04/25 09:24:46;;;;;;;21.15;9.43;;;17.20;22.90;;;;;;5034431;28;20038;-79
2021/04/25 09:27:23;;;;;;;20.38;8.68;;;18.50;23.20;;;;;;5025124;28;20156;-81
2021/04/25 09:29:57;;;;;;;24.75;8.45;;;18.70;20.90;;;;;;5022658;28;20048;-78
2021/04/25 09:32:26;;;;;;;19.38;10.40;;;17.90;21.30;;;;;;5043412;28;20105;-78
2021/04/25 09:35:19;;;;;;;21.58;9.50;;;18.00;22.40;;;;;;5020467;28;20046;-79
2021/04/25 09:37:47;;;;;;;22.75;8.73;;;18.20;21.30;;;;;;5041631;28;20040;-79
2021/04/25 09:40:22;;;;;;;22.15;7.50;;;18.70;21.80;;;;;;5035856;28;20063;-79
2021/04/25 09:43:08;;;;;;;17.42;7.97;;;18.90;19.90;;;;;;5031407;28;20125;-79
2021/04/25 09:45:44;;;;;;;16.88;8.52;;;19.10;19.80;;;;;;5039474;28;20053;-79
2021/04/25 09:48:30;;;;;;;19.38;9.00;;;19.00;19.30;;;;;;5033922;28;20043;-80
2021/04/25 09:51:25;;;;;;;17.65;8.30;;;19.80;18.10;;;;;;5035901;28;20106;-79
2021/04/25 09:53:54;;;;;;;17.85;7.53;;;20.40;17.60;;;;;;5031865;28;20038;-79
2021/04/25 09:56:22;;;;;;;11.32;6.60;;;20.00;17.00;;;;;;5034726;28;20061;-79
2021/04/25 09:58:57;;;;;;;16.80;6.75;;;20.20;17.00;;;;;;5029276;28;20056;-79
2021/04/25 10:01:31;;;;;;;11.82;6.90;;;20.00;16.60;;;;;;5036177;28;20115;-79
2021/04/25 10:04:00;;;;;;;18.77;9.00;;;20.40;17.20;;;;;;5024275;28;20040;-81
2021/04/25 10:06:26;;;;;;;16.33;6.97;;;20.70;16.30;;;;;;5038777;28;20034;-79
2021/04/25 10:08:53;;;;;;;12.45;7.00;;;21.40;16.70;;;;;;5029809;28;20052;-82
2021/04/25 10:11:20;;;;;;;12.23;7.20;;;21.60;15.20;;;;;;5034843;28;20114;-81
2021/04/25 10:13:51;;;;;;;17.42;7.75;;;21.50;15.60;;;;;;5032339;28;20136;-81
2021/04/25 10:16:19;;;;;;;11.68;7.43;;;20.70;14.50;;;;;;5026562;28;20056;-79
2021/04/25 10:18:45;;;;;;;16.23;6.93;;;20.20;15.30;;;;;;5027505;28;20095;-81
2021/04/25 10:21:11;;;;;;;17.67;7.32;;;20.80;15.80;;;;;;5027952;28;20073;-78
2021/04/25 10:23:37;;;;;;;17.40;6.55;;;21.70;14.80;;;;;;5028129;28;20516;-78
2021/04/25 10:26:14;;;;;;;19.38;6.97;;;22.10;14.40;;;;;;5026744;28;20126;-81
2021/04/25 10:28:46;;;;;;;11.27;6.78;;;21.90;13.80;;;;;;5027111;28;20390;-80
2021/04/25 10:31:20;;;;;;;17.73;7.78;;;23.10;13.30;;;;;;5023461;28;20107;-78
2021/04/25 10:33:58;;;;;;;15.25;7.82;;;23.00;13.30;;;;;;5030721;28;20041;-80
2021/04/25 10:36:47;;;;;;;11.77;7.35;;;22.50;12.90;;;;;;5028707;28;20039;-78
2021/04/25 10:39:31;;;;;;;13.75;6.90;;;22.00;12.90;;;;;;5033547;28;20029;-79
2021/04/25 10:42:16;;;;;;;13.48;6.28;;;21.00;14.50;;;;;;5029336;28;20055;-80
2021/04/25 10:44:57;;;;;;;14.65;7.53;;;22.10;13.30;;;;;;5032830;28;20028;-80
2021/04/25 10:47:23;;;;;;;15.15;7.85;;;22.30;12.40;;;;;;5027311;28;20033;-80
2021/04/25 10:49:49;;;;;;;14.43;6.35;;;21.00;14.20;;;;;;5028276;28;20053;-80
2021/04/25 10:52:21;;;;;;;16.38;7.05;;;21.30;14.60;;;;;;5028503;28;20082;-79
2021/04/25 10:58:07;;;;;;;17.92;6.80;;;22.00;13.60;;;;;;5030229;28;20040;-79
2021/04/25 11:00:42;;;;;;;12.15;6.50;;;23.10;12.70;;;;;;5019524;28;20049;-81
2021/04/25 11:03:20;;;;;;;14.40;6.30;;;23.00;11.80;;;;;;5026306;28;20041;-79
2021/04/25 11:05:53;;;;;;;20.48;7.15;;;23.20;12.10;;;;;;5023745;28;20052;-82
2021/04/25 11:08:30;;;;;;;13.20;6.68;;;22.90;12.50;;;;;;5030560;28;20060;-79
2021/04/25 11:11:05;;;;;;;16.05;6.72;;;23.10;12.30;;;;;;5032768;28;20063;-79
2021/04/25 11:13:51;;;;;;;15.98;5.25;;;21.20;12.20;;;;;;5028122;28;20034;-81
2021/04/25 11:16:16;;;;;;;8.50;4.55;;;22.60;12.20;;;;;;5039038;28;20041;-79
2021/04/25 11:18:47;;;;;;;13.32;5.13;;;21.80;12.50;;;;;;5028280;28;20095;-78
2021/04/25 11:21:38;;;;;;;12.57;5.30;;;22.40;11.80;;;;;;5024079;28;20086;-81
2021/04/25 11:24:06;;;;;;;14.85;5.28;;;22.20;11.20;;;;;;5017170;28;20064;-79
2021/04/25 11:26:41;;;;;;;13.52;5.55;;;22.70;11.50;;;;;;5033136;28;20048;-79
2021/04/25 11:29:20;;;;;;;10.00;4.65;;;22.70;10.20;;;;;;5030783;28;20059;-79
2021/04/25 11:31:52;;;;;;;12.80;5.15;;;22.10;10.40;;;;;;5032008;28;20056;-79
2021/04/25 11:34:33;;;;;;;12.63;5.30;;;22.00;11.50;;;;;;5024736;28;20125;-79
2021/04/25 11:37:05;;;;;;;9.27;4.18;;;21.90;10.60;;;;;;5030121;28;20597;-79
2021/04/25 11:39:33;;;;;;;9.27;4.68;;;22.60;10.50;;;;;;5028243;28;20068;-79
2021/04/25 11:42:00;;;;;;;10.98;4.78;;;22.40;10.50;;;;;;5030602;28;20064;-80
2021/04/25 11:44:36;;;;;;;10.52;5.10;;;23.10;10.10;;;;;;5030470;28;20034;-79
2021/04/25 11:47:09;;;;;;;10.95;5.15;;;23.10;11.00;;;;;;5030805;28;20037;-80
2021/04/25 11:49:43;;;;;;;8.17;4.33;;;21.40;9.70;;;;;;5039837;28;20109;-79
2021/04/25 11:52:22;;;;;;;8.55;4.07;;;22.30;9.20;;;;;;5023914;28;20276;-79
2021/04/25 11:54:57;;;;;;;6.95;3.70;;;22.70;9.20;;;;;;5029184;28;20036;-83
2021/04/25 11:57:24;;;;;;;8.70;3.97;;;22.90;7.90;;;;;;5026857;28;20125;-81
2021/04/25 12:00:42;;;;;;;7.95;4.03;;;23.70;8.40;;;;;;5027885;28;20038;-81
2021/04/25 12:03:07;;;;;;;9.68;3.60;;;22.80;7.10;;;;;;5015250;28;20033;-80
2021/04/25 12:05:35;;;;;;;9.95;4.32;;;22.30;7.80;;;;;;5025881;28;20523;-80
2021/04/25 12:08:04;;;;;;;14.95;4.20;;;22.40;8.50;;;;;;5037370;28;20037;-81
2021/04/25 12:10:34;;;;;;;11.75;4.50;;;22.50;7.70;;;;;;5022015;28;20641;-83
2021/04/25 12:13:20;;;;;;;15.55;3.95;;;23.40;8.10;;;;;;5047098;28;20159;-81
2021/04/25 12:15:47;;;;;;;9.00;4.18;;;21.00;6.20;;;;;;5010498;28;20042;-82
2021/04/25 12:18:15;;;;;;;8.77;3.50;;;21.00;8.50;;;;;;5028844;28;20121;-82
2021/04/25 12:20:46;;;;;;;12.57;4.25;;;22.30;8.20;;;;;;5030815;28;20033;-84
2021/04/25 12:23:14;;;;;;;10.18;3.97;;;23.60;8.90;;;;;;5032620;28;20053;-83
2021/04/25 12:25:40;;;;;;;8.50;3.70;;;24.20;6.60;;;;;;5030073;28;20097;-83
2021/04/25 12:28:06;;;;;;;7.50;2.95;;;24.40;7.60;;;;;;5021797;28;20480;-79
2021/04/25 12:30:31;;;;;;;8.73;3.95;;;25.00;7.00;;;;;;5023677;28;20068;-81
2021/04/25 12:33:09;;;;;;;10.55;3.10;;;24.90;6.00;;;;;;5025777;28;20504;-79
2021/04/25 12:36:02;;;;;;;9.32;3.42;;;24.50;6.20;;;;;;5020894;28;20052;-78
2021/04/25 12:38:31;;;;;;;5.88;2.97;;;24.80;6.00;;;;;;5026090;28;20095;-80
2021/04/25 12:40:59;;;;;;;6.30;2.90;;;25.10;4.80;;;;;;5025415;28;20183;-80
2021/04/25 12:43:27;;;;;;;5.32;3.42;;;25.10;3.80;;;;;;5025666;28;20046;-78
2021/04/25 12:45:54;;;;;;;7.40;3.45;;;23.20;4.80;;;;;;5026724;28;20033;-78
2021/04/25 12:48:34;;;;;;;6.78;3.28;;;24.00;6.00;;;;;;5020971;28;20042;-79
2021/04/25 12:51:18;;;;;;;7.15;2.95;;;24.70;4.40;;;;;;5033786;28;20037;-79